TimeCDT,TemperatureF,Dew PointF,Humidity,Sea Level PressureIn,VisibilityMPH,Wind Direction,Wind SpeedMPH,Gust SpeedMPH,PrecipitationIn,Events,Conditions,WindDirDegrees,DateUTC
12:53 AM,28.4,17.6,64,30.11,10.0,East,3.5,-,N/A,,Clear,80,2013-03-21 05:53:00
1:53 AM,28.9,17.1,61,30.11,10.0,ENE,8.1,-,N/A,,Clear,70,2013-03-21 06:53:00
2:53 AM,30.0,15.1,54,30.09,10.0,East,10.4,-,N/A,,Clear,80,2013-03-21 07:53:00
3:53 AM,28.9,12.9,51,30.08,10.0,East,8.1,-,N/A,,Clear,90,2013-03-21 08:53:00
4:53 AM,27.0,15.1,61,30.06,10.0,East,5.8,-,N/A,,Clear,80,2013-03-21 09:53:00
5:53 AM,28.9,14.0,54,30.06,10.0,ESE,5.8,-,N/A,,Clear,120,2013-03-21 10:53:00
6:53 AM,30.0,12.0,47,30.07,10.0,ESE,9.2,-,N/A,,Overcast,110,2013-03-21 11:53:00
7:53 AM,28.9,12.0,49,30.06,10.0,East,13.8,-,N/A,,Overcast,90,2013-03-21 12:53:00
8:53 AM,30.0,12.9,49,30.04,10.0,East,16.1,25.3,N/A,,Overcast,80,2013-03-21 13:53:00
9:53 AM,28.9,18.0,64,30.03,10.0,East,12.7,-,N/A,,Overcast,90,2013-03-21 14:53:00
10:53 AM,30.0,19.9,66,30.03,10.0,East,12.7,-,N/A,,Overcast,100,2013-03-21 15:53:00
11:12 AM,28.9,21.0,72,30.00,1.8,East,11.5,-,0.00,Snow,Light Snow,80,2013-03-21 16:12:00
11:36 AM,28.0,21.9,78,30.00,2.5,East,10.4,-,0.00,Snow,Light Snow,80,2013-03-21 16:36:00
11:53 AM,28.9,21.9,75,30.02,3.0,East,15.0,-,0.00,Snow,Light Snow,90,2013-03-21 16:53:00
12:53 PM,28.9,23.0,78,30.00,10.0,East,12.7,-,0.00,,Overcast,80,2013-03-21 17:53:00
1:08 PM,30.0,23.0,75,29.97,10.0,East,12.7,-,N/A,,Overcast,100,2013-03-21 18:08:00
1:40 PM,30.9,23.0,72,29.95,10.0,East,13.8,-,N/A,,Overcast,90,2013-03-21 18:40:00
1:53 PM,30.9,23.0,72,29.97,10.0,East,13.8,-,N/A,,Overcast,90,2013-03-21 18:53:00
2:53 PM,32.0,24.8,75,29.92,10.0,East,15.0,-,N/A,,Overcast,90,2013-03-21 19:53:00
3:53 PM,33.1,24.1,70,29.93,10.0,East,15.0,-,N/A,,Overcast,90,2013-03-21 20:53:00
4:53 PM,32.0,24.1,73,29.93,10.0,East,12.7,-,N/A,,Overcast,80,2013-03-21 21:53:00
5:53 PM,32.0,24.1,73,29.92,10.0,East,11.5,-,N/A,,Overcast,90,2013-03-21 22:53:00
6:53 PM,30.9,24.1,76,29.94,10.0,East,12.7,-,N/A,,Overcast,90,2013-03-21 23:53:00
7:53 PM,30.0,25.0,82,29.95,6.0,East,10.4,-,N/A,,Haze,80,2013-03-22 00:53:00
8:10 PM,30.0,26.1,85,29.93,4.0,East,11.5,-,N/A,,Overcast,80,2013-03-22 01:10:00
8:32 PM,30.0,26.1,85,29.93,3.0,ENE,10.4,-,N/A,,Overcast,70,2013-03-22 01:32:00
8:41 PM,30.0,27.0,88,29.93,2.5,East,11.5,-,N/A,,Overcast,80,2013-03-22 01:41:00
8:53 PM,30.0,27.0,88,29.96,2.5,ENE,10.4,-,N/A,,Overcast,70,2013-03-22 01:53:00
9:53 PM,30.0,27.0,88,29.96,2.0,ENE,10.4,-,N/A,,Overcast,70,2013-03-22 02:53:00
10:41 PM,28.9,27.0,92,29.94,3.0,ENE,11.5,-,N/A,,Overcast,70,2013-03-22 03:41:00
10:53 PM,28.9,27.0,92,29.97,3.0,East,8.1,-,N/A,,Overcast,80,2013-03-22 03:53:00
11:53 PM,30.0,27.0,88,29.97,3.0,ENE,9.2,-,N/A,,Overcast,60,2013-03-22 04:53:00